sensor_id;sensor_type;location;lat;lon;timestamp;P1;durP1;ratioP1;P2;durP2;ratioP2
19095;SDS011;9680;52.520;13.332;2023-03-01T00:01:36;34.83;;;12.93;;
19095;SDS011;9680;52.520;13.332;2023-03-01T00:04:03;38.00;;;14.00;;
19095;SDS011;9680;52.520;13.332;2023-03-01T00:06:30;72.93;;;26.23;;
19095;SDS011;9680;52.520;13.332;2023-03-01T00:08:57;38.10;;;14.00;;
19095;SDS011;9680;52.520;13.332;2023-03-01T00:11:26;33.73;;;13.83;;
19095;SDS011;9680;52.520;13.332;2023-03-01T00:13:55;38.67;;;14.20;;
19095;SDS011;9680;52.520;13.332;2023-03-01T00:16:24;39.00;;;14.70;;
19095;SDS011;9680;52.520;13.332;2023-03-01T00:18:53;40.30;;;13.53;;
19095;SDS011;9680;52.520;13.332;2023-03-01T00:21:20;37.27;;;15.03;;
19095;SDS011;9680;52.520;13.332;2023-03-01T00:23:48;32.17;;;13.50;;
19095;SDS011;9680;52.520;13.332;2023-03-01T00:26:16;37.40;;;15.00;;
19095;SDS011;9680;52.520;13.332;2023-03-01T00:28:46;37.83;;;13.97;;
19095;SDS011;9680;52.520;13.332;2023-03-01T00:31:14;34.23;;;14.00;;
19095;SDS011;9680;52.520;13.332;2023-03-01T00:33:42;35.23;;;13.67;;
19095;SDS011;9680;52.520;13.332;2023-03-01T00:36:09;36.10;;;13.30;;
19095;SDS011;9680;52.520;13.332;2023-03-01T00:38:37;42.97;;;14.40;;
19095;SDS011;9680;52.520;13.332;2023-03-01T00:41:06;33.33;;;13.33;;
19095;SDS011;9680;52.520;13.332;2023-03-01T00:43:34;32.97;;;13.53;;
19095;SDS011;9680;52.520;13.332;2023-03-01T00:46:04;36.33;;;13.13;;
19095;SDS011;9680;52.520;13.332;2023-03-01T00:48:33;39.70;;;14.40;;
19095;SDS011;9680;52.520;13.332;2023-03-01T00:51:04;43.30;;;14.07;;
19095;SDS011;9680;52.520;13.332;2023-03-01T00:53:32;33.80;;;13.80;;
19095;SDS011;9680;52.520;13.332;2023-03-01T00:55:59;42.03;;;14.57;;
19095;SDS011;9680;52.520;13.332;2023-03-01T00:58:26;38.10;;;14.63;;
19095;SDS011;9680;52.520;13.332;2023-03-01T01:00:53;38.07;;;14.77;;
19095;SDS011;9680;52.520;13.332;2023-03-01T01:03:21;36.73;;;16.90;;
19095;SDS011;9680;52.520;13.332;2023-03-01T01:05:50;42.07;;;15.53;;
19095;SDS011;9680;52.520;13.332;2023-03-01T01:08:16;35.40;;;14.37;;
19095;SDS011;9680;52.520;13.332;2023-03-01T01:10:44;39.90;;;15.03;;
19095;SDS011;9680;52.520;13.332;2023-03-01T01:13:11;39.27;;;14.77;;
19095;SDS011;9680;52.520;13.332;2023-03-01T01:15:38;44.30;;;15.60;;
19095;SDS011;9680;52.520;13.332;2023-03-01T01:18:05;36.87;;;14.53;;
19095;SDS011;9680;52.520;13.332;2023-03-01T01:20:34;40.17;;;14.67;;
19095;SDS011;9680;52.520;13.332;2023-03-01T01:23:01;33.67;;;13.83;;
19095;SDS011;9680;52.520;13.332;2023-03-01T01:25:28;39.70;;;14.70;;
19095;SDS011;9680;52.520;13.332;2023-03-01T01:27:55;37.50;;;14.03;;
19095;SDS011;9680;52.520;13.332;2023-03-01T01:30:22;37.03;;;14.07;;
19095;SDS011;9680;52.520;13.332;2023-03-01T01:32:50;36.23;;;14.40;;
19095;SDS011;9680;52.520;13.332;2023-03-01T01:35:17;38.37;;;14.10;;
19095;SDS011;9680;52.520;13.332;2023-03-01T01:37:45;35.97;;;13.43;;
19095;SDS011;9680;52.520;13.332;2023-03-01T01:40:12;35.33;;;14.67;;
19095;SDS011;9680;52.520;13.332;2023-03-01T01:42:39;33.33;;;13.70;;
19095;SDS011;9680;52.520;13.332;2023-03-01T01:47:53;38.20;;;13.17;;
19095;SDS011;9680;52.520;13.332;2023-03-01T01:50:23;34.23;;;13.23;;
19095;SDS011;9680;52.520;13.332;2023-03-01T01:52:51;39.97;;;14.63;;
19095;SDS011;9680;52.520;13.332;2023-03-01T01:55:20;31.43;;;13.83;;
19095;SDS011;9680;52.520;13.332;2023-03-01T01:57:51;36.80;;;12.93;;
19095;SDS011;9680;52.520;13.332;2023-03-01T02:00:22;38.50;;;14.03;;
19095;SDS011;9680;52.520;13.332;2023-03-01T02:02:50;34.13;;;13.53;;
19095;SDS011;9680;52.520;13.332;2023-03-01T02:05:22;31.23;;;13.97;;
19095;SDS011;9680;52.520;13.332;2023-03-01T02:07:57;35.47;;;13.17;;
19095;SDS011;9680;52.520;13.332;2023-03-01T02:10:25;34.67;;;14.13;;
19095;SDS011;9680;52.520;13.332;2023-03-01T02:12:54;34.97;;;13.30;;
19095;SDS011;9680;52.520;13.332;2023-03-01T02:15:22;32.90;;;13.87;;
19095;SDS011;9680;52.520;13.332;2023-03-01T02:17:52;34.10;;;13.37;;
19095;SDS011;9680;52.520;13.332;2023-03-01T02:20:21;34.60;;;13.43;;
19095;SDS011;9680;52.520;13.332;2023-03-01T02:22:58;31.40;;;13.37;;
19095;SDS011;9680;52.520;13.332;2023-03-01T02:25:29;32.93;;;13.20;;
19095;SDS011;9680;52.520;13.332;2023-03-01T02:28:04;35.13;;;13.47;;
19095;SDS011;9680;52.520;13.332;2023-03-01T02:30:38;35.60;;;13.73;;
19095;SDS011;9680;52.520;13.332;2023-03-01T02:33:26;42.27;;;13.60;;
19095;SDS011;9680;52.520;13.332;2023-03-01T02:35:52;39.93;;;13.83;;
19095;SDS011;9680;52.520;13.332;2023-03-01T02:38:20;31.90;;;12.70;;
19095;SDS011;9680;52.520;13.332;2023-03-01T02:40:49;35.43;;;13.90;;
19095;SDS011;9680;52.520;13.332;2023-03-01T02:43:17;33.00;;;13.40;;
19095;SDS011;9680;52.520;13.332;2023-03-01T02:45:50;41.13;;;14.07;;
19095;SDS011;9680;52.520;13.332;2023-03-01T02:48:19;34.47;;;13.40;;
19095;SDS011;9680;52.520;13.332;2023-03-01T02:50:52;33.73;;;13.23;;
19095;SDS011;9680;52.520;13.332;2023-03-01T02:53:32;32.67;;;13.30;;
19095;SDS011;9680;52.520;13.332;2023-03-01T02:56:05;37.17;;;13.67;;
19095;SDS011;9680;52.520;13.332;2023-03-01T02:58:39;33.17;;;13.83;;
19095;SDS011;9680;52.520;13.332;2023-03-01T03:01:13;32.97;;;13.67;;
19095;SDS011;9680;52.520;13.332;2023-03-01T03:03:41;37.00;;;13.73;;
19095;SDS011;9680;52.520;13.332;2023-03-01T03:06:09;38.10;;;12.90;;
19095;SDS011;9680;52.520;13.332;2023-03-01T03:08:36;37.27;;;14.20;;
19095;SDS011;9680;52.520;13.332;2023-03-01T03:11:03;36.63;;;13.83;;
19095;SDS011;9680;52.520;13.332;2023-03-01T03:13:30;34.07;;;14.20;;
19095;SDS011;9680;52.520;13.332;2023-03-01T03:15:57;42.07;;;13.57;;
19095;SDS011;9680;52.520;13.332;2023-03-01T03:18:25;32.80;;;13.47;;
19095;SDS011;9680;52.520;13.332;2023-03-01T03:20:52;38.63;;;14.07;;
19095;SDS011;9680;52.520;13.332;2023-03-01T03:23:20;34.90;;;14.63;;
19095;SDS011;9680;52.520;13.332;2023-03-01T03:25:48;34.10;;;14.40;;
19095;SDS011;9680;52.520;13.332;2023-03-01T03:28:15;35.27;;;13.43;;
19095;SDS011;9680;52.520;13.332;2023-03-01T03:30:42;34.70;;;13.13;;
19095;SDS011;9680;52.520;13.332;2023-03-01T03:33:10;35.30;;;13.73;;
19095;SDS011;9680;52.520;13.332;2023-03-01T03:35:41;31.50;;;13.20;;
19095;SDS011;9680;52.520;13.332;2023-03-01T03:38:10;34.37;;;13.70;;
19095;SDS011;9680;52.520;13.332;2023-03-01T03:40:43;37.40;;;14.10;;
19095;SDS011;9680;52.520;13.332;2023-03-01T03:43:11;33.90;;;13.63;;
19095;SDS011;9680;52.520;13.332;2023-03-01T03:45:45;33.20;;;14.20;;
19095;SDS011;9680;52.520;13.332;2023-03-01T03:48:12;39.63;;;14.03;;
19095;SDS011;9680;52.520;13.332;2023-03-01T03:50:41;39.37;;;13.93;;
19095;SDS011;9680;52.520;13.332;2023-03-01T03:53:11;36.90;;;14.27;;
19095;SDS011;9680;52.520;13.332;2023-03-01T03:55:38;33.07;;;13.43;;
19095;SDS011;9680;52.520;13.332;2023-03-01T03:58:06;32.70;;;13.57;;
19095;SDS011;9680;52.520;13.332;2023-03-01T04:00:36;37.03;;;13.87;;
19095;SDS011;9680;52.520;13.332;2023-03-01T04:03:05;31.20;;;12.37;;
19095;SDS011;9680;52.520;13.332;2023-03-01T04:05:32;32.83;;;13.90;;
19095;SDS011;9680;52.520;13.332;2023-03-01T04:08:01;37.57;;;14.73;;
19095;SDS011;9680;52.520;13.332;2023-03-01T04:10:28;37.23;;;13.73;;
19095;SDS011;9680;52.520;13.332;2023-03-01T04:12:56;39.77;;;14.13;;
19095;SDS011;9680;52.520;13.332;2023-03-01T04:15:23;38.00;;;14.17;;
19095;SDS011;9680;52.520;13.332;2023-03-01T04:17:51;39.47;;;14.07;;
19095;SDS011;9680;52.520;13.332;2023-03-01T04:20:20;33.07;;;13.47;;
19095;SDS011;9680;52.520;13.332;2023-03-01T04:22:50;32.37;;;13.60;;
19095;SDS011;9680;52.520;13.332;2023-03-01T04:25:19;33.77;;;13.43;;
19095;SDS011;9680;52.520;13.332;2023-03-01T04:27:50;40.00;;;14.23;;
19095;SDS011;9680;52.520;13.332;2023-03-01T04:30:17;32.83;;;13.37;;
19095;SDS011;9680;52.520;13.332;2023-03-01T04:32:44;36.57;;;14.10;;
19095;SDS011;9680;52.520;13.332;2023-03-01T04:35:11;35.90;;;13.60;;
19095;SDS011;9680;52.520;13.332;2023-03-01T04:37:38;34.10;;;12.50;;
19095;SDS011;9680;52.520;13.332;2023-03-01T04:40:07;31.67;;;13.10;;
19095;SDS011;9680;52.520;13.332;2023-03-01T04:42:42;34.43;;;13.00;;
19095;SDS011;9680;52.520;13.332;2023-03-01T04:45:09;31.73;;;13.23;;
19095;SDS011;9680;52.520;13.332;2023-03-01T04:47:39;34.50;;;12.47;;
19095;SDS011;9680;52.520;13.332;2023-03-01T04:50:08;34.67;;;13.27;;
19095;SDS011;9680;52.520;13.332;2023-03-01T04:52:35;34.00;;;12.87;;
19095;SDS011;9680;52.520;13.332;2023-03-01T04:55:02;37.63;;;13.90;;
19095;SDS011;9680;52.520;13.332;2023-03-01T04:57:30;34.70;;;13.03;;
19095;SDS011;9680;52.520;13.332;2023-03-01T04:59:59;28.47;;;12.10;;
19095;SDS011;9680;52.520;13.332;2023-03-01T05:02:26;32.97;;;12.60;;
19095;SDS011;9680;52.520;13.332;2023-03-01T05:04:52;32.77;;;13.03;;
19095;SDS011;9680;52.520;13.332;2023-03-01T05:07:22;39.50;;;13.30;;
19095;SDS011;9680;52.520;13.332;2023-03-01T05:09:51;34.23;;;12.67;;
19095;SDS011;9680;52.520;13.332;2023-03-01T05:12:18;27.83;;;11.77;;
19095;SDS011;9680;52.520;13.332;2023-03-01T05:14:44;35.17;;;12.40;;
19095;SDS011;9680;52.520;13.332;2023-03-01T05:17:12;31.37;;;12.27;;
19095;SDS011;9680;52.520;13.332;2023-03-01T05:19:39;31.47;;;12.53;;
19095;SDS011;9680;52.520;13.332;2023-03-01T05:22:07;30.03;;;12.50;;
19095;SDS011;9680;52.520;13.332;2023-03-01T05:24:34;29.33;;;12.27;;
19095;SDS011;9680;52.520;13.332;2023-03-01T05:27:02;34.10;;;13.00;;
19095;SDS011;9680;52.520;13.332;2023-03-01T05:29:30;35.53;;;12.73;;
19095;SDS011;9680;52.520;13.332;2023-03-01T05:32:00;33.13;;;12.23;;
19095;SDS011;9680;52.520;13.332;2023-03-01T05:34:30;38.43;;;13.40;;
19095;SDS011;9680;52.520;13.332;2023-03-01T05:36:58;33.60;;;12.10;;
19095;SDS011;9680;52.520;13.332;2023-03-01T05:39:26;26.37;;;11.70;;
19095;SDS011;9680;52.520;13.332;2023-03-01T05:41:54;31.03;;;12.57;;
19095;SDS011;9680;52.520;13.332;2023-03-01T05:44:22;34.13;;;12.80;;
19095;SDS011;9680;52.520;13.332;2023-03-01T05:46:50;32.70;;;12.57;;
19095;SDS011;9680;52.520;13.332;2023-03-01T05:49:18;31.47;;;12.17;;
19095;SDS011;9680;52.520;13.332;2023-03-01T05:51:48;33.73;;;12.13;;
19095;SDS011;9680;52.520;13.332;2023-03-01T05:54:17;31.53;;;11.97;;
19095;SDS011;9680;52.520;13.332;2023-03-01T05:56:44;32.80;;;12.93;;
19095;SDS011;9680;52.520;13.332;2023-03-01T05:59:12;30.50;;;12.00;;
19095;SDS011;9680;52.520;13.332;2023-03-01T06:01:40;32.97;;;12.70;;
19095;SDS011;9680;52.520;13.332;2023-03-01T06:04:07;33.60;;;11.77;;
19095;SDS011;9680;52.520;13.332;2023-03-01T06:06:34;33.40;;;12.47;;
19095;SDS011;9680;52.520;13.332;2023-03-01T06:09:03;32.13;;;11.83;;
19095;SDS011;9680;52.520;13.332;2023-03-01T06:11:33;33.90;;;12.93;;
19095;SDS011;9680;52.520;13.332;2023-03-01T06:14:00;33.67;;;12.23;;
19095;SDS011;9680;52.520;13.332;2023-03-01T06:16:30;39.33;;;13.27;;
19095;SDS011;9680;52.520;13.332;2023-03-01T06:18:57;33.73;;;12.10;;
19095;SDS011;9680;52.520;13.332;2023-03-01T06:21:24;37.87;;;13.00;;
19095;SDS011;9680;52.520;13.332;2023-03-01T06:23:51;31.50;;;13.00;;
19095;SDS011;9680;52.520;13.332;2023-03-01T06:26:19;36.07;;;12.07;;
19095;SDS011;9680;52.520;13.332;2023-03-01T06:28:46;38.53;;;12.60;;
19095;SDS011;9680;52.520;13.332;2023-03-01T06:31:13;38.93;;;12.80;;
19095;SDS011;9680;52.520;13.332;2023-03-01T06:33:40;30.80;;;12.40;;
19095;SDS011;9680;52.520;13.332;2023-03-01T06:36:09;34.50;;;13.63;;
19095;SDS011;9680;52.520;13.332;2023-03-01T06:38:36;34.20;;;13.20;;
19095;SDS011;9680;52.520;13.332;2023-03-01T06:41:06;34.77;;;13.07;;
19095;SDS011;9680;52.520;13.332;2023-03-01T06:43:34;35.17;;;13.47;;
19095;SDS011;9680;52.520;13.332;2023-03-01T06:46:03;36.17;;;13.63;;
19095;SDS011;9680;52.520;13.332;2023-03-01T06:48:31;35.23;;;14.97;;
19095;SDS011;9680;52.520;13.332;2023-03-01T06:50:58;36.27;;;13.80;;
19095;SDS011;9680;52.520;13.332;2023-03-01T06:53:26;31.37;;;13.40;;
19095;SDS011;9680;52.520;13.332;2023-03-01T06:55:53;30.83;;;12.27;;
19095;SDS011;9680;52.520;13.332;2023-03-01T06:58:21;33.53;;;13.10;;
19095;SDS011;9680;52.520;13.332;2023-03-01T07:00:49;29.50;;;12.53;;
19095;SDS011;9680;52.520;13.332;2023-03-01T07:03:16;30.87;;;12.93;;
19095;SDS011;9680;52.520;13.332;2023-03-01T07:05:43;33.17;;;12.93;;
19095;SDS011;9680;52.520;13.332;2023-03-01T07:08:10;35.20;;;12.83;;
19095;SDS011;9680;52.520;13.332;2023-03-01T07:10:37;38.00;;;13.33;;
19095;SDS011;9680;52.520;13.332;2023-03-01T07:13:04;33.50;;;13.53;;
19095;SDS011;9680;52.520;13.332;2023-03-01T07:15:32;40.03;;;14.50;;
19095;SDS011;9680;52.520;13.332;2023-03-01T07:18:00;37.43;;;13.40;;
19095;SDS011;9680;52.520;13.332;2023-03-01T07:20:27;40.00;;;14.40;;
19095;SDS011;9680;52.520;13.332;2023-03-01T07:22:54;30.17;;;12.97;;
19095;SDS011;9680;52.520;13.332;2023-03-01T07:25:21;37.53;;;13.70;;
19095;SDS011;9680;52.520;13.332;2023-03-01T07:27:49;32.43;;;13.90;;
19095;SDS011;9680;52.520;13.332;2023-03-01T07:30:16;33.77;;;14.13;;
19095;SDS011;9680;52.520;13.332;2023-03-01T07:32:43;41.97;;;13.90;;
19095;SDS011;9680;52.520;13.332;2023-03-01T07:35:12;36.17;;;14.03;;
19095;SDS011;9680;52.520;13.332;2023-03-01T07:37:39;38.37;;;15.73;;
19095;SDS011;9680;52.520;13.332;2023-03-01T07:40:07;34.70;;;13.90;;
19095;SDS011;9680;52.520;13.332;2023-03-01T07:42:36;36.70;;;13.43;;
19095;SDS011;9680;52.520;13.332;2023-03-01T07:45:03;32.23;;;12.33;;
19095;SDS011;9680;52.520;13.332;2023-03-01T07:47:31;31.57;;;12.37;;
19095;SDS011;9680;52.520;13.332;2023-03-01T07:49:58;37.27;;;12.37;;
19095;SDS011;9680;52.520;13.332;2023-03-01T07:52:27;28.30;;;11.57;;
19095;SDS011;9680;52.520;13.332;2023-03-01T07:54:54;30.07;;;11.60;;
19095;SDS011;9680;52.520;13.332;2023-03-01T07:57:21;31.50;;;12.53;;
19095;SDS011;9680;52.520;13.332;2023-03-01T07:59:48;31.13;;;12.00;;
19095;SDS011;9680;52.520;13.332;2023-03-01T08:02:15;31.53;;;13.40;;
19095;SDS011;9680;52.520;13.332;2023-03-01T08:04:42;32.93;;;13.27;;
19095;SDS011;9680;52.520;13.332;2023-03-01T08:07:09;30.47;;;12.20;;
19095;SDS011;9680;52.520;13.332;2023-03-01T08:09:37;24.47;;;11.07;;
19095;SDS011;9680;52.520;13.332;2023-03-01T08:12:04;27.43;;;11.20;;
19095;SDS011;9680;52.520;13.332;2023-03-01T08:14:32;23.83;;;11.53;;
19095;SDS011;9680;52.520;13.332;2023-03-01T08:16:59;29.83;;;12.20;;
19095;SDS011;9680;52.520;13.332;2023-03-01T08:19:28;30.33;;;12.27;;
19095;SDS011;9680;52.520;13.332;2023-03-01T08:21:56;33.13;;;11.83;;
19095;SDS011;9680;52.520;13.332;2023-03-01T08:24:23;26.50;;;11.73;;
19095;SDS011;9680;52.520;13.332;2023-03-01T08:26:52;30.80;;;11.57;;
19095;SDS011;9680;52.520;13.332;2023-03-01T08:29:18;26.67;;;11.43;;
19095;SDS011;9680;52.520;13.332;2023-03-01T08:31:45;24.70;;;9.73;;
19095;SDS011;9680;52.520;13.332;2023-03-01T08:34:13;25.33;;;10.00;;
19095;SDS011;9680;52.520;13.332;2023-03-01T08:36:42;22.63;;;8.30;;
19095;SDS011;9680;52.520;13.332;2023-03-01T08:39:11;24.60;;;9.47;;
19095;SDS011;9680;52.520;13.332;2023-03-01T08:41:40;20.77;;;8.40;;
19095;SDS011;9680;52.520;13.332;2023-03-01T08:44:09;20.30;;;6.67;;
19095;SDS011;9680;52.520;13.332;2023-03-01T08:46:38;14.97;;;5.87;;
19095;SDS011;9680;52.520;13.332;2023-03-01T08:49:06;13.80;;;5.67;;
19095;SDS011;9680;52.520;13.332;2023-03-01T08:51:34;10.87;;;4.80;;
19095;SDS011;9680;52.520;13.332;2023-03-01T08:54:02;14.23;;;4.53;;
19095;SDS011;9680;52.520;13.332;2023-03-01T08:56:30;14.27;;;4.90;;
19095;SDS011;9680;52.520;13.332;2023-03-01T08:58:57;14.43;;;5.07;;
19095;SDS011;9680;52.520;13.332;2023-03-01T09:01:25;14.00;;;5.20;;
19095;SDS011;9680;52.520;13.332;2023-03-01T09:03:52;14.80;;;5.30;;
19095;SDS011;9680;52.520;13.332;2023-03-01T09:06:18;14.13;;;5.40;;
19095;SDS011;9680;52.520;13.332;2023-03-01T09:08:46;12.20;;;4.60;;
19095;SDS011;9680;52.520;13.332;2023-03-01T09:11:15;15.17;;;4.70;;
19095;SDS011;9680;52.520;13.332;2023-03-01T09:13:43;11.20;;;4.77;;
19095;SDS011;9680;52.520;13.332;2023-03-01T09:16:10;14.40;;;5.03;;
19095;SDS011;9680;52.520;13.332;2023-03-01T09:18:40;16.60;;;5.00;;
19095;SDS011;9680;52.520;13.332;2023-03-01T09:21:08;12.33;;;4.97;;
19095;SDS011;9680;52.520;13.332;2023-03-01T09:23:37;14.33;;;4.83;;
19095;SDS011;9680;52.520;13.332;2023-03-01T09:26:05;11.90;;;4.77;;
19095;SDS011;9680;52.520;13.332;2023-03-01T09:28:34;10.37;;;4.57;;
19095;SDS011;9680;52.520;13.332;2023-03-01T09:31:01;11.07;;;4.00;;
19095;SDS011;9680;52.520;13.332;2023-03-01T09:33:29;15.47;;;5.07;;
19095;SDS011;9680;52.520;13.332;2023-03-01T09:35:59;10.53;;;4.53;;
19095;SDS011;9680;52.520;13.332;2023-03-01T09:38:27;11.13;;;3.70;;
19095;SDS011;9680;52.520;13.332;2023-03-01T09:40:53;13.73;;;4.43;;
19095;SDS011;9680;52.520;13.332;2023-03-01T09:43:23;10.53;;;3.87;;
19095;SDS011;9680;52.520;13.332;2023-03-01T09:45:55;8.30;;;3.40;;
19095;SDS011;9680;52.520;13.332;2023-03-01T09:48:33;8.47;;;3.50;;
19095;SDS011;9680;52.520;13.332;2023-03-01T09:51:12;9.30;;;3.70;;
19095;SDS011;9680;52.520;13.332;2023-03-01T09:53:42;11.73;;;4.30;;
19095;SDS011;9680;52.520;13.332;2023-03-01T09:56:12;10.83;;;4.90;;
19095;SDS011;9680;52.520;13.332;2023-03-01T09:58:47;9.03;;;3.47;;
19095;SDS011;9680;52.520;13.332;2023-03-01T10:01:25;11.93;;;4.67;;
19095;SDS011;9680;52.520;13.332;2023-03-01T10:06:54;8.60;;;3.07;;
19095;SDS011;9680;52.520;13.332;2023-03-01T10:09:32;8.47;;;3.43;;
19095;SDS011;9680;52.520;13.332;2023-03-01T10:12:02;11.70;;;4.47;;
19095;SDS011;9680;52.520;13.332;2023-03-01T10:14:35;11.97;;;5.20;;
19095;SDS011;9680;52.520;13.332;2023-03-01T10:17:08;12.77;;;5.60;;
19095;SDS011;9680;52.520;13.332;2023-03-01T10:19:39;10.33;;;4.80;;
19095;SDS011;9680;52.520;13.332;2023-03-01T10:22:11;12.23;;;5.63;;
19095;SDS011;9680;52.520;13.332;2023-03-01T10:24:41;17.47;;;5.07;;
19095;SDS011;9680;52.520;13.332;2023-03-01T10:27:11;18.97;;;6.63;;
19095;SDS011;9680;52.520;13.332;2023-03-01T10:29:46;21.40;;;5.90;;
19095;SDS011;9680;52.520;13.332;2023-03-01T10:32:17;14.27;;;5.30;;
19095;SDS011;9680;52.520;13.332;2023-03-01T10:34:47;13.27;;;5.70;;
19095;SDS011;9680;52.520;13.332;2023-03-01T10:37:16;12.37;;;5.83;;
19095;SDS011;9680;52.520;13.332;2023-03-01T10:39:57;13.03;;;5.30;;
19095;SDS011;9680;52.520;13.332;2023-03-01T10:42:26;12.50;;;5.03;;
19095;SDS011;9680;52.520;13.332;2023-03-01T10:44:55;14.00;;;4.57;;
19095;SDS011;9680;52.520;13.332;2023-03-01T10:47:23;13.60;;;4.43;;
19095;SDS011;9680;52.520;13.332;2023-03-01T10:49:52;10.30;;;4.30;;
19095;SDS011;9680;52.520;13.332;2023-03-01T10:52:26;10.73;;;4.60;;
19095;SDS011;9680;52.520;13.332;2023-03-01T10:54:56;10.80;;;4.30;;
19095;SDS011;9680;52.520;13.332;2023-03-01T10:57:30;10.20;;;4.30;;
19095;SDS011;9680;52.520;13.332;2023-03-01T11:00:16;12.47;;;4.43;;
19095;SDS011;9680;52.520;13.332;2023-03-01T11:02:46;9.50;;;4.07;;
19095;SDS011;9680;52.520;13.332;2023-03-01T11:05:16;10.57;;;4.40;;
19095;SDS011;9680;52.520;13.332;2023-03-01T11:07:50;12.07;;;4.40;;
19095;SDS011;9680;52.520;13.332;2023-03-01T11:10:19;12.43;;;4.20;;
19095;SDS011;9680;52.520;13.332;2023-03-01T11:12:47;16.57;;;4.47;;
19095;SDS011;9680;52.520;13.332;2023-03-01T11:15:22;10.70;;;3.90;;
19095;SDS011;9680;52.520;13.332;2023-03-01T11:17:51;7.50;;;3.60;;
19095;SDS011;9680;52.520;13.332;2023-03-01T11:20:21;11.13;;;3.53;;
19095;SDS011;9680;52.520;13.332;2023-03-01T11:22:54;7.50;;;3.90;;
19095;SDS011;9680;52.520;13.332;2023-03-01T11:25:24;8.93;;;3.67;;
19095;SDS011;9680;52.520;13.332;2023-03-01T11:27:56;7.17;;;3.60;;
19095;SDS011;9680;52.520;13.332;2023-03-01T11:30:27;12.80;;;3.80;;
19095;SDS011;9680;52.520;13.332;2023-03-01T11:33:01;13.23;;;3.90;;
19095;SDS011;9680;52.520;13.332;2023-03-01T11:35:35;7.80;;;3.87;;
19095;SDS011;9680;52.520;13.332;2023-03-01T11:38:09;7.70;;;3.93;;
19095;SDS011;9680;52.520;13.332;2023-03-01T11:40:44;9.13;;;3.70;;
19095;SDS011;9680;52.520;13.332;2023-03-01T11:43:19;11.13;;;4.27;;
19095;SDS011;9680;52.520;13.332;2023-03-01T11:49:00;7.67;;;3.50;;
19095;SDS011;9680;52.520;13.332;2023-03-01T11:51:38;13.83;;;3.53;;
19095;SDS011;9680;52.520;13.332;2023-03-01T11:54:17;10.00;;;4.30;;
19095;SDS011;9680;52.520;13.332;2023-03-01T11:56:54;16.07;;;3.57;;
19095;SDS011;9680;52.520;13.332;2023-03-01T11:59:31;10.37;;;3.73;;
19095;SDS011;9680;52.520;13.332;2023-03-01T12:02:25;8.97;;;3.30;;
19095;SDS011;9680;52.520;13.332;2023-03-01T12:05:11;6.33;;;2.63;;
19095;SDS011;9680;52.520;13.332;2023-03-01T12:08:01;6.10;;;2.40;;
19095;SDS011;9680;52.520;13.332;2023-03-01T12:10:40;7.47;;;2.53;;
19095;SDS011;9680;52.520;13.332;2023-03-01T12:13:29;5.03;;;2.60;;
19095;SDS011;9680;52.520;13.332;2023-03-01T12:16:27;6.83;;;2.30;;
19095;SDS011;9680;52.520;13.332;2023-03-01T12:19:09;9.60;;;3.63;;
19095;SDS011;9680;52.520;13.332;2023-03-01T12:21:57;6.40;;;2.60;;
19095;SDS011;9680;52.520;13.332;2023-03-01T12:24:38;3.57;;;2.07;;
19095;SDS011;9680;52.520;13.332;2023-03-01T12:27:20;6.10;;;2.70;;
19095;SDS011;9680;52.520;13.332;2023-03-01T12:30:05;5.80;;;2.73;;
19095;SDS011;9680;52.520;13.332;2023-03-01T12:32:45;5.90;;;2.70;;
19095;SDS011;9680;52.520;13.332;2023-03-01T12:35:28;5.07;;;2.70;;
19095;SDS011;9680;52.520;13.332;2023-03-01T12:38:06;10.17;;;2.97;;
19095;SDS011;9680;52.520;13.332;2023-03-01T12:43:51;6.50;;;2.97;;
19095;SDS011;9680;52.520;13.332;2023-03-01T12:46:41;7.43;;;2.83;;
19095;SDS011;9680;52.520;13.332;2023-03-01T12:49:19;8.47;;;3.10;;
19095;SDS011;9680;52.520;13.332;2023-03-01T12:51:51;7.57;;;3.07;;
19095;SDS011;9680;52.520;13.332;2023-03-01T12:54:24;8.40;;;2.90;;
19095;SDS011;9680;52.520;13.332;2023-03-01T12:56:54;8.53;;;3.30;;
19095;SDS011;9680;52.520;13.332;2023-03-01T12:59:26;7.77;;;2.67;;
19095;SDS011;9680;52.520;13.332;2023-03-01T13:02:04;6.00;;;2.80;;
19095;SDS011;9680;52.520;13.332;2023-03-01T13:04:51;7.93;;;2.80;;
19095;SDS011;9680;52.520;13.332;2023-03-01T13:07:25;6.47;;;2.70;;
19095;SDS011;9680;52.520;13.332;2023-03-01T13:10:01;5.03;;;2.40;;
19095;SDS011;9680;52.520;13.332;2023-03-01T13:12:44;5.47;;;2.57;;
19095;SDS011;9680;52.520;13.332;2023-03-01T13:15:27;9.30;;;3.23;;
19095;SDS011;9680;52.520;13.332;2023-03-01T13:17:57;7.70;;;2.73;;
19095;SDS011;9680;52.520;13.332;2023-03-01T13:20:25;5.23;;;2.40;;
19095;SDS011;9680;52.520;13.332;2023-03-01T13:23:03;6.93;;;2.47;;
19095;SDS011;9680;52.520;13.332;2023-03-01T13:25:33;8.13;;;2.20;;
19095;SDS011;9680;52.520;13.332;2023-03-01T13:37:29;6.17;;;2.40;;
19095;SDS011;9680;52.520;13.332;2023-03-01T13:39:58;5.77;;;1.97;;
19095;SDS011;9680;52.520;13.332;2023-03-01T13:42:37;4.43;;;2.17;;
19095;SDS011;9680;52.520;13.332;2023-03-01T13:45:25;5.83;;;2.30;;
19095;SDS011;9680;52.520;13.332;2023-03-01T13:48:04;6.60;;;2.37;;
19095;SDS011;9680;52.520;13.332;2023-03-01T13:50:38;5.27;;;2.00;;
19095;SDS011;9680;52.520;13.332;2023-03-01T13:53:14;6.60;;;2.67;;
19095;SDS011;9680;52.520;13.332;2023-03-01T13:55:45;4.87;;;2.20;;
19095;SDS011;9680;52.520;13.332;2023-03-01T13:58:15;6.57;;;2.00;;
19095;SDS011;9680;52.520;13.332;2023-03-01T14:00:46;4.17;;;1.90;;
19095;SDS011;9680;52.520;13.332;2023-03-01T14:03:15;5.67;;;2.40;;
19095;SDS011;9680;52.520;13.332;2023-03-01T14:05:57;6.90;;;2.17;;
19095;SDS011;9680;52.520;13.332;2023-03-01T14:08:26;5.13;;;2.20;;
19095;SDS011;9680;52.520;13.332;2023-03-01T14:11:00;4.13;;;1.90;;
19095;SDS011;9680;52.520;13.332;2023-03-01T14:13:51;8.00;;;2.30;;
19095;SDS011;9680;52.520;13.332;2023-03-01T14:16:37;4.47;;;2.07;;
19095;SDS011;9680;52.520;13.332;2023-03-01T14:19:18;6.63;;;2.20;;
19095;SDS011;9680;52.520;13.332;2023-03-01T14:21:56;4.27;;;1.70;;
19095;SDS011;9680;52.520;13.332;2023-03-01T14:24:27;6.40;;;1.77;;
19095;SDS011;9680;52.520;13.332;2023-03-01T14:26:54;6.23;;;1.90;;
19095;SDS011;9680;52.520;13.332;2023-03-01T14:29:25;4.77;;;2.20;;
19095;SDS011;9680;52.520;13.332;2023-03-01T14:31:53;3.90;;;1.83;;
19095;SDS011;9680;52.520;13.332;2023-03-01T14:34:21;4.07;;;2.10;;
19095;SDS011;9680;52.520;13.332;2023-03-01T14:36:49;4.77;;;2.30;;
19095;SDS011;9680;52.520;13.332;2023-03-01T14:39:17;4.07;;;1.97;;
19095;SDS011;9680;52.520;13.332;2023-03-01T14:41:46;3.70;;;1.70;;
19095;SDS011;9680;52.520;13.332;2023-03-01T14:44:14;3.53;;;1.70;;
19095;SDS011;9680;52.520;13.332;2023-03-01T14:46:51;5.30;;;2.00;;
19095;SDS011;9680;52.520;13.332;2023-03-01T14:49:22;6.63;;;2.17;;
19095;SDS011;9680;52.520;13.332;2023-03-01T14:51:52;4.57;;;1.97;;
19095;SDS011;9680;52.520;13.332;2023-03-01T14:54:23;5.20;;;1.90;;
19095;SDS011;9680;52.520;13.332;2023-03-01T14:56:53;4.80;;;1.80;;
19095;SDS011;9680;52.520;13.332;2023-03-01T14:59:24;5.30;;;1.73;;
19095;SDS011;9680;52.520;13.332;2023-03-01T15:01:51;4.50;;;1.60;;
19095;SDS011;9680;52.520;13.332;2023-03-01T15:04:22;6.10;;;1.93;;
19095;SDS011;9680;52.520;13.332;2023-03-01T15:06:52;5.30;;;1.87;;
19095;SDS011;9680;52.520;13.332;2023-03-01T15:09:21;4.93;;;1.77;;
19095;SDS011;9680;52.520;13.332;2023-03-01T15:11:48;4.67;;;2.10;;